sensor_id;sensor_type;location;lat;lon;timestamp;P1;durP1;ratioP1;P2;durP2;ratioP2
51636;SDS011;37713;53.254;6.460;2023-08-31T00:00:41;5.38;;;1.55;;
51636;SDS011;37713;53.254;6.460;2023-08-31T00:03:08;2.38;;;1.15;;
51636;SDS011;37713;53.254;6.460;2023-08-31T00:05:41;7.13;;;1.50;;
51636;SDS011;37713;53.254;6.460;2023-08-31T00:08:08;4.63;;;1.50;;
51636;SDS011;37713;53.254;6.460;2023-08-31T00:10:35;4.20;;;1.30;;
51636;SDS011;37713;53.254;6.460;2023-08-31T00:13:01;5.95;;;1.10;;
51636;SDS011;37713;53.254;6.460;2023-08-31T00:15:27;5.57;;;1.30;;
51636;SDS011;37713;53.254;6.460;2023-08-31T00:18:00;4.07;;;1.23;;
51636;SDS011;37713;53.254;6.460;2023-08-31T00:20:29;3.65;;;1.17;;
51636;SDS011;37713;53.254;6.460;2023-08-31T00:22:56;5.10;;;1.35;;
51636;SDS011;37713;53.254;6.460;2023-08-31T00:25:22;6.68;;;1.35;;
51636;SDS011;37713;53.254;6.460;2023-08-31T00:27:48;4.15;;;1.27;;
51636;SDS011;37713;53.254;6.460;2023-08-31T00:30:14;4.88;;;1.20;;
51636;SDS011;37713;53.254;6.460;2023-08-31T00:32:40;6.97;;;1.83;;
51636;SDS011;37713;53.254;6.460;2023-08-31T00:35:08;9.00;;;1.13;;
51636;SDS011;37713;53.254;6.460;2023-08-31T00:37:34;5.95;;;1.15;;
51636;SDS011;37713;53.254;6.460;2023-08-31T00:40:00;7.80;;;1.13;;
51636;SDS011;37713;53.254;6.460;2023-08-31T00:42:26;4.35;;;1.42;;
51636;SDS011;37713;53.254;6.460;2023-08-31T00:44:54;4.68;;;1.13;;
51636;SDS011;37713;53.254;6.460;2023-08-31T00:47:20;7.22;;;1.65;;
51636;SDS011;37713;53.254;6.460;2023-08-31T00:49:46;7.07;;;1.58;;
51636;SDS011;37713;53.254;6.460;2023-08-31T00:52:13;7.45;;;1.67;;
51636;SDS011;37713;53.254;6.460;2023-08-31T00:54:39;3.28;;;1.27;;
51636;SDS011;37713;53.254;6.460;2023-08-31T00:57:07;7.35;;;1.80;;
51636;SDS011;37713;53.254;6.460;2023-08-31T00:59:33;8.13;;;1.70;;
51636;SDS011;37713;53.254;6.460;2023-08-31T01:02:07;9.40;;;1.80;;
51636;SDS011;37713;53.254;6.460;2023-08-31T01:04:42;6.20;;;1.80;;
51636;SDS011;37713;53.254;6.460;2023-08-31T01:07:34;8.02;;;1.80;;
51636;SDS011;37713;53.254;6.460;2023-08-31T01:10:29;8.57;;;1.73;;
51636;SDS011;37713;53.254;6.460;2023-08-31T01:13:17;9.43;;;1.80;;
51636;SDS011;37713;53.254;6.460;2023-08-31T01:15:50;7.05;;;2.15;;
51636;SDS011;37713;53.254;6.460;2023-08-31T01:18:21;4.28;;;1.70;;
51636;SDS011;37713;53.254;6.460;2023-08-31T01:23:51;5.95;;;1.92;;
51636;SDS011;37713;53.254;6.460;2023-08-31T01:26:21;5.85;;;2.28;;
51636;SDS011;37713;53.254;6.460;2023-08-31T01:28:47;9.88;;;2.35;;
51636;SDS011;37713;53.254;6.460;2023-08-31T01:31:14;5.90;;;2.15;;
51636;SDS011;37713;53.254;6.460;2023-08-31T01:33:41;7.22;;;2.15;;
51636;SDS011;37713;53.254;6.460;2023-08-31T01:36:12;6.20;;;2.28;;
51636;SDS011;37713;53.254;6.460;2023-08-31T01:38:48;7.40;;;2.55;;
51636;SDS011;37713;53.254;6.460;2023-08-31T01:41:20;6.38;;;2.08;;
51636;SDS011;37713;53.254;6.460;2023-08-31T01:43:49;7.65;;;2.78;;
51636;SDS011;37713;53.254;6.460;2023-08-31T01:46:17;10.60;;;2.33;;
51636;SDS011;37713;53.254;6.460;2023-08-31T01:48:45;4.63;;;2.00;;
51636;SDS011;37713;53.254;6.460;2023-08-31T01:51:10;7.07;;;2.33;;
51636;SDS011;37713;53.254;6.460;2023-08-31T01:53:36;5.75;;;2.35;;
51636;SDS011;37713;53.254;6.460;2023-08-31T01:56:02;6.10;;;2.25;;
51636;SDS011;37713;53.254;6.460;2023-08-31T01:58:30;6.45;;;2.10;;
51636;SDS011;37713;53.254;6.460;2023-08-31T02:00:56;4.90;;;2.20;;
51636;SDS011;37713;53.254;6.460;2023-08-31T02:03:22;6.68;;;2.20;;
51636;SDS011;37713;53.254;6.460;2023-08-31T02:05:47;7.07;;;2.20;;
51636;SDS011;37713;53.254;6.460;2023-08-31T02:08:13;6.03;;;2.03;;
51636;SDS011;37713;53.254;6.460;2023-08-31T02:10:43;6.03;;;2.35;;
51636;SDS011;37713;53.254;6.460;2023-08-31T02:13:09;5.43;;;2.10;;
51636;SDS011;37713;53.254;6.460;2023-08-31T02:15:38;6.65;;;2.30;;
51636;SDS011;37713;53.254;6.460;2023-08-31T02:18:04;5.13;;;2.00;;
51636;SDS011;37713;53.254;6.460;2023-08-31T02:20:32;6.97;;;2.30;;
51636;SDS011;37713;53.254;6.460;2023-08-31T02:22:59;9.43;;;2.40;;
51636;SDS011;37713;53.254;6.460;2023-08-31T02:25:25;6.30;;;1.60;;
51636;SDS011;37713;53.254;6.460;2023-08-31T02:27:53;6.05;;;1.98;;
51636;SDS011;37713;53.254;6.460;2023-08-31T02:30:20;7.85;;;2.13;;
51636;SDS011;37713;53.254;6.460;2023-08-31T02:32:46;9.90;;;2.05;;
51636;SDS011;37713;53.254;6.460;2023-08-31T02:35:12;6.95;;;1.98;;
51636;SDS011;37713;53.254;6.460;2023-08-31T02:37:38;7.25;;;2.10;;
51636;SDS011;37713;53.254;6.460;2023-08-31T02:40:04;6.65;;;1.90;;
51636;SDS011;37713;53.254;6.460;2023-08-31T02:42:31;9.95;;;2.38;;
51636;SDS011;37713;53.254;6.460;2023-08-31T02:44:57;5.95;;;2.10;;
51636;SDS011;37713;53.254;6.460;2023-08-31T02:47:23;8.27;;;2.05;;
51636;SDS011;37713;53.254;6.460;2023-08-31T02:49:49;5.95;;;2.20;;
51636;SDS011;37713;53.254;6.460;2023-08-31T02:52:14;6.82;;;2.13;;
51636;SDS011;37713;53.254;6.460;2023-08-31T02:54:40;5.70;;;2.10;;
51636;SDS011;37713;53.254;6.460;2023-08-31T02:57:06;8.30;;;2.08;;
51636;SDS011;37713;53.254;6.460;2023-08-31T02:59:32;6.80;;;1.60;;
51636;SDS011;37713;53.254;6.460;2023-08-31T03:02:03;9.25;;;1.70;;
51636;SDS011;37713;53.254;6.460;2023-08-31T03:04:29;7.10;;;2.03;;
51636;SDS011;37713;53.254;6.460;2023-08-31T03:06:56;5.03;;;1.50;;
51636;SDS011;37713;53.254;6.460;2023-08-31T03:09:21;6.57;;;1.70;;
51636;SDS011;37713;53.254;6.460;2023-08-31T03:11:47;6.28;;;1.98;;
51636;SDS011;37713;53.254;6.460;2023-08-31T03:14:13;6.97;;;1.80;;
51636;SDS011;37713;53.254;6.460;2023-08-31T03:16:39;5.10;;;1.80;;
51636;SDS011;37713;53.254;6.460;2023-08-31T03:19:05;6.80;;;1.90;;
51636;SDS011;37713;53.254;6.460;2023-08-31T03:21:31;7.20;;;1.67;;
51636;SDS011;37713;53.254;6.460;2023-08-31T03:23:56;6.88;;;1.65;;
51636;SDS011;37713;53.254;6.460;2023-08-31T03:26:22;10.00;;;1.90;;
51636;SDS011;37713;53.254;6.460;2023-08-31T03:28:48;5.15;;;1.50;;
51636;SDS011;37713;53.254;6.460;2023-08-31T03:31:14;7.07;;;1.60;;
51636;SDS011;37713;53.254;6.460;2023-08-31T03:33:40;8.00;;;1.52;;
51636;SDS011;37713;53.254;6.460;2023-08-31T03:36:06;4.13;;;1.33;;
51636;SDS011;37713;53.254;6.460;2023-08-31T03:38:32;6.80;;;1.50;;
51636;SDS011;37713;53.254;6.460;2023-08-31T03:41:02;5.45;;;1.50;;
51636;SDS011;37713;53.254;6.460;2023-08-31T03:43:28;2.58;;;1.30;;
51636;SDS011;37713;53.254;6.460;2023-08-31T03:45:55;4.45;;;1.30;;
51636;SDS011;37713;53.254;6.460;2023-08-31T03:48:21;4.18;;;1.17;;
51636;SDS011;37713;53.254;6.460;2023-08-31T03:50:51;4.27;;;1.20;;
51636;SDS011;37713;53.254;6.460;2023-08-31T03:53:18;5.88;;;1.77;;
51636;SDS011;37713;53.254;6.460;2023-08-31T03:55:44;4.70;;;1.60;;
51636;SDS011;37713;53.254;6.460;2023-08-31T03:58:10;6.05;;;1.48;;
51636;SDS011;37713;53.254;6.460;2023-08-31T04:00:37;3.67;;;1.30;;
51636;SDS011;37713;53.254;6.460;2023-08-31T04:03:03;6.88;;;1.50;;
51636;SDS011;37713;53.254;6.460;2023-08-31T04:05:33;5.55;;;1.52;;
51636;SDS011;37713;53.254;6.460;2023-08-31T04:08:00;7.18;;;3.00;;
51636;SDS011;37713;53.254;6.460;2023-08-31T04:10:27;6.57;;;1.63;;
51636;SDS011;37713;53.254;6.460;2023-08-31T04:12:55;4.35;;;1.38;;
51636;SDS011;37713;53.254;6.460;2023-08-31T04:15:21;4.85;;;1.48;;
51636;SDS011;37713;53.254;6.460;2023-08-31T04:17:47;3.55;;;1.20;;
51636;SDS011;37713;53.254;6.460;2023-08-31T04:20:14;11.10;;;1.90;;
51636;SDS011;37713;53.254;6.460;2023-08-31T04:22:40;6.40;;;1.30;;
51636;SDS011;37713;53.254;6.460;2023-08-31T04:25:06;8.48;;;1.63;;
51636;SDS011;37713;53.254;6.460;2023-08-31T04:27:32;3.45;;;1.10;;
51636;SDS011;37713;53.254;6.460;2023-08-31T04:29:59;2.97;;;1.27;;
51636;SDS011;37713;53.254;6.460;2023-08-31T04:32:26;3.58;;;1.02;;
51636;SDS011;37713;53.254;6.460;2023-08-31T04:34:52;5.75;;;1.15;;
51636;SDS011;37713;53.254;6.460;2023-08-31T04:37:18;4.72;;;1.30;;
51636;SDS011;37713;53.254;6.460;2023-08-31T04:39:46;4.63;;;1.35;;
51636;SDS011;37713;53.254;6.460;2023-08-31T04:42:11;4.78;;;1.52;;
51636;SDS011;37713;53.254;6.460;2023-08-31T04:44:37;3.53;;;1.27;;
51636;SDS011;37713;53.254;6.460;2023-08-31T04:47:03;6.93;;;1.20;;
51636;SDS011;37713;53.254;6.460;2023-08-31T04:49:29;2.85;;;1.30;;
51636;SDS011;37713;53.254;6.460;2023-08-31T04:51:56;3.92;;;1.33;;
51636;SDS011;37713;53.254;6.460;2023-08-31T04:54:21;3.22;;;1.20;;
51636;SDS011;37713;53.254;6.460;2023-08-31T04:56:47;3.90;;;1.20;;
51636;SDS011;37713;53.254;6.460;2023-08-31T04:59:13;6.75;;;1.42;;
51636;SDS011;37713;53.254;6.460;2023-08-31T05:01:39;10.30;;;1.40;;
51636;SDS011;37713;53.254;6.460;2023-08-31T05:04:05;4.60;;;1.35;;
51636;SDS011;37713;53.254;6.460;2023-08-31T05:06:31;2.97;;;1.40;;
51636;SDS011;37713;53.254;6.460;2023-08-31T05:08:57;9.35;;;1.70;;
51636;SDS011;37713;53.254;6.460;2023-08-31T05:11:23;3.25;;;1.20;;
51636;SDS011;37713;53.254;6.460;2023-08-31T05:13:49;6.20;;;1.50;;
51636;SDS011;37713;53.254;6.460;2023-08-31T05:16:15;5.30;;;1.50;;
51636;SDS011;37713;53.254;6.460;2023-08-31T05:18:41;5.95;;;1.38;;
51636;SDS011;37713;53.254;6.460;2023-08-31T05:21:07;6.97;;;1.60;;
51636;SDS011;37713;53.254;6.460;2023-08-31T05:23:33;4.07;;;1.10;;
51636;SDS011;37713;53.254;6.460;2023-08-31T05:25:59;4.55;;;1.10;;
51636;SDS011;37713;53.254;6.460;2023-08-31T05:28:26;6.55;;;1.48;;
51636;SDS011;37713;53.254;6.460;2023-08-31T05:30:53;4.47;;;1.38;;
51636;SDS011;37713;53.254;6.460;2023-08-31T05:33:21;4.15;;;1.35;;
51636;SDS011;37713;53.254;6.460;2023-08-31T05:35:54;6.55;;;1.40;;
51636;SDS011;37713;53.254;6.460;2023-08-31T05:38:20;6.13;;;1.70;;
51636;SDS011;37713;53.254;6.460;2023-08-31T05:40:46;6.65;;;2.00;;
51636;SDS011;37713;53.254;6.460;2023-08-31T05:43:12;7.28;;;1.90;;
51636;SDS011;37713;53.254;6.460;2023-08-31T05:45:38;8.27;;;1.60;;
51636;SDS011;37713;53.254;6.460;2023-08-31T05:48:04;5.05;;;1.60;;
51636;SDS011;37713;53.254;6.460;2023-08-31T05:50:31;6.57;;;1.90;;
51636;SDS011;37713;53.254;6.460;2023-08-31T05:52:57;6.18;;;1.55;;
51636;SDS011;37713;53.254;6.460;2023-08-31T05:55:23;7.97;;;1.60;;
51636;SDS011;37713;53.254;6.460;2023-08-31T05:57:49;9.40;;;1.85;;
51636;SDS011;37713;53.254;6.460;2023-08-31T06:00:15;8.23;;;1.77;;
51636;SDS011;37713;53.254;6.460;2023-08-31T06:02:43;8.63;;;1.73;;
51636;SDS011;37713;53.254;6.460;2023-08-31T06:05:10;5.05;;;1.70;;
51636;SDS011;37713;53.254;6.460;2023-08-31T06:07:41;8.75;;;1.65;;
51636;SDS011;37713;53.254;6.460;2023-08-31T06:10:08;9.20;;;1.73;;
51636;SDS011;37713;53.254;6.460;2023-08-31T06:12:33;4.72;;;1.48;;
51636;SDS011;37713;53.254;6.460;2023-08-31T06:14:59;6.82;;;1.90;;
51636;SDS011;37713;53.254;6.460;2023-08-31T06:17:25;7.93;;;1.80;;
51636;SDS011;37713;53.254;6.460;2023-08-31T06:19:51;7.20;;;1.58;;
51636;SDS011;37713;53.254;6.460;2023-08-31T06:22:17;6.88;;;1.80;;
51636;SDS011;37713;53.254;6.460;2023-08-31T06:24:43;9.32;;;1.90;;
51636;SDS011;37713;53.254;6.460;2023-08-31T06:27:10;6.45;;;1.65;;
51636;SDS011;37713;53.254;6.460;2023-08-31T06:29:37;8.20;;;1.85;;
51636;SDS011;37713;53.254;6.460;2023-08-31T06:32:03;5.88;;;1.70;;
51636;SDS011;37713;53.254;6.460;2023-08-31T06:34:30;4.68;;;1.70;;
51636;SDS011;37713;53.254;6.460;2023-08-31T06:36:56;6.78;;;1.95;;
51636;SDS011;37713;53.254;6.460;2023-08-31T06:39:23;6.63;;;1.98;;
51636;SDS011;37713;53.254;6.460;2023-08-31T06:41:49;11.23;;;2.03;;
51636;SDS011;37713;53.254;6.460;2023-08-31T06:44:15;9.15;;;2.22;;
51636;SDS011;37713;53.254;6.460;2023-08-31T06:46:42;6.35;;;1.58;;
51636;SDS011;37713;53.254;6.460;2023-08-31T06:49:08;5.93;;;1.83;;
51636;SDS011;37713;53.254;6.460;2023-08-31T06:51:35;8.55;;;2.15;;
51636;SDS011;37713;53.254;6.460;2023-08-31T06:54:01;7.00;;;2.03;;
51636;SDS011;37713;53.254;6.460;2023-08-31T06:56:34;5.45;;;1.75;;
51636;SDS011;37713;53.254;6.460;2023-08-31T06:59:01;7.72;;;1.80;;
51636;SDS011;37713;53.254;6.460;2023-08-31T07:01:28;6.30;;;1.80;;
51636;SDS011;37713;53.254;6.460;2023-08-31T07:03:54;5.15;;;2.00;;
51636;SDS011;37713;53.254;6.460;2023-08-31T07:06:20;8.20;;;1.80;;
51636;SDS011;37713;53.254;6.460;2023-08-31T07:08:46;4.28;;;1.10;;
51636;SDS011;37713;53.254;6.460;2023-08-31T07:11:13;5.22;;;1.38;;
51636;SDS011;37713;53.254;6.460;2023-08-31T07:13:40;3.95;;;1.17;;
51636;SDS011;37713;53.254;6.460;2023-08-31T07:16:07;6.28;;;1.15;;
51636;SDS011;37713;53.254;6.460;2023-08-31T07:18:32;7.93;;;1.23;;
51636;SDS011;37713;53.254;6.460;2023-08-31T07:20:58;6.70;;;1.15;;
51636;SDS011;37713;53.254;6.460;2023-08-31T07:23:24;4.03;;;1.20;;
51636;SDS011;37713;53.254;6.460;2023-08-31T07:25:50;6.15;;;1.00;;
51636;SDS011;37713;53.254;6.460;2023-08-31T07:28:16;4.75;;;0.95;;
51636;SDS011;37713;53.254;6.460;2023-08-31T07:30:42;4.28;;;1.00;;
51636;SDS011;37713;53.254;6.460;2023-08-31T07:33:09;7.70;;;1.27;;
51636;SDS011;37713;53.254;6.460;2023-08-31T07:35:35;6.85;;;1.20;;
51636;SDS011;37713;53.254;6.460;2023-08-31T07:38:01;8.77;;;1.35;;
51636;SDS011;37713;53.254;6.460;2023-08-31T07:40:26;9.27;;;1.40;;
51636;SDS011;37713;53.254;6.460;2023-08-31T07:42:52;5.80;;;1.13;;
51636;SDS011;37713;53.254;6.460;2023-08-31T07:45:18;5.80;;;1.27;;
51636;SDS011;37713;53.254;6.460;2023-08-31T07:47:44;4.75;;;1.00;;
51636;SDS011;37713;53.254;6.460;2023-08-31T07:50:09;4.70;;;1.00;;
51636;SDS011;37713;53.254;6.460;2023-08-31T07:52:35;4.85;;;1.05;;
51636;SDS011;37713;53.254;6.460;2023-08-31T07:55:03;6.13;;;1.08;;
51636;SDS011;37713;53.254;6.460;2023-08-31T07:57:29;3.88;;;0.93;;
51636;SDS011;37713;53.254;6.460;2023-08-31T07:59:55;2.88;;;0.90;;
51636;SDS011;37713;53.254;6.460;2023-08-31T08:02:20;6.30;;;0.90;;
51636;SDS011;37713;53.254;6.460;2023-08-31T08:04:46;5.28;;;0.80;;
51636;SDS011;37713;53.254;6.460;2023-08-31T08:07:12;3.45;;;0.90;;
51636;SDS011;37713;53.254;6.460;2023-08-31T08:09:38;3.58;;;0.73;;
51636;SDS011;37713;53.254;6.460;2023-08-31T08:12:04;3.38;;;0.80;;
51636;SDS011;37713;53.254;6.460;2023-08-31T08:14:30;3.67;;;0.73;;
51636;SDS011;37713;53.254;6.460;2023-08-31T08:16:57;6.22;;;1.00;;
51636;SDS011;37713;53.254;6.460;2023-08-31T08:19:23;5.70;;;0.90;;
51636;SDS011;37713;53.254;6.460;2023-08-31T08:21:50;2.92;;;0.80;;
51636;SDS011;37713;53.254;6.460;2023-08-31T08:24:16;1.98;;;0.70;;
51636;SDS011;37713;53.254;6.460;2023-08-31T08:26:42;2.92;;;0.80;;
51636;SDS011;37713;53.254;6.460;2023-08-31T08:29:08;5.85;;;1.08;;
51636;SDS011;37713;53.254;6.460;2023-08-31T08:31:34;5.15;;;0.80;;
51636;SDS011;37713;53.254;6.460;2023-08-31T08:34:00;3.63;;;0.57;;
51636;SDS011;37713;53.254;6.460;2023-08-31T08:36:26;8.50;;;0.80;;
51636;SDS011;37713;53.254;6.460;2023-08-31T08:38:52;3.13;;;0.80;;
51636;SDS011;37713;53.254;6.460;2023-08-31T08:41:19;3.22;;;0.70;;
51636;SDS011;37713;53.254;6.460;2023-08-31T08:43:53;3.00;;;0.70;;
51636;SDS011;37713;53.254;6.460;2023-08-31T08:46:21;2.08;;;0.55;;
51636;SDS011;37713;53.254;6.460;2023-08-31T08:48:48;2.75;;;0.70;;
51636;SDS011;37713;53.254;6.460;2023-08-31T08:51:15;2.88;;;0.63;;
51636;SDS011;37713;53.254;6.460;2023-08-31T08:53:42;7.40;;;0.70;;
51636;SDS011;37713;53.254;6.460;2023-08-31T08:56:09;6.72;;;1.00;;
51636;SDS011;37713;53.254;6.460;2023-08-31T08:58:35;1.27;;;0.40;;
51636;SDS011;37713;53.254;6.460;2023-08-31T09:01:01;1.23;;;0.45;;
51636;SDS011;37713;53.254;6.460;2023-08-31T09:03:29;5.30;;;0.50;;
51636;SDS011;37713;53.254;6.460;2023-08-31T09:05:54;2.88;;;0.80;;
51636;SDS011;37713;53.254;6.460;2023-08-31T09:08:26;2.53;;;0.70;;
51636;SDS011;37713;53.254;6.460;2023-08-31T09:10:55;2.90;;;0.80;;
51636;SDS011;37713;53.254;6.460;2023-08-31T09:13:28;3.20;;;0.75;;
51636;SDS011;37713;53.254;6.460;2023-08-31T09:15:55;4.70;;;0.70;;
51636;SDS011;37713;53.254;6.460;2023-08-31T09:18:23;2.58;;;0.70;;
51636;SDS011;37713;53.254;6.460;2023-08-31T09:20:53;2.63;;;0.60;;
51636;SDS011;37713;53.254;6.460;2023-08-31T09:23:21;3.10;;;0.60;;
51636;SDS011;37713;53.254;6.460;2023-08-31T09:25:49;3.75;;;0.80;;
51636;SDS011;37713;53.254;6.460;2023-08-31T09:28:22;2.78;;;0.60;;
51636;SDS011;37713;53.254;6.460;2023-08-31T09:30:52;2.25;;;0.60;;
51636;SDS011;37713;53.254;6.460;2023-08-31T09:33:27;3.40;;;0.80;;
51636;SDS011;37713;53.254;6.460;2023-08-31T09:35:57;5.78;;;1.10;;
51636;SDS011;37713;53.254;6.460;2023-08-31T09:38:25;2.65;;;0.60;;
51636;SDS011;37713;53.254;6.460;2023-08-31T09:40:51;3.30;;;0.70;;
51636;SDS011;37713;53.254;6.460;2023-08-31T09:43:20;1.08;;;0.50;;
51636;SDS011;37713;53.254;6.460;2023-08-31T09:45:48;2.22;;;0.65;;
51636;SDS011;37713;53.254;6.460;2023-08-31T09:48:16;1.58;;;0.60;;
51636;SDS011;37713;53.254;6.460;2023-08-31T09:50:45;5.47;;;1.00;;
51636;SDS011;37713;53.254;6.460;2023-08-31T09:53:12;3.03;;;0.82;;
51636;SDS011;37713;53.254;6.460;2023-08-31T09:55:44;2.83;;;0.70;;
51636;SDS011;37713;53.254;6.460;2023-08-31T09:58:17;2.97;;;0.73;;
51636;SDS011;37713;53.254;6.460;2023-08-31T10:00:45;3.03;;;0.75;;
51636;SDS011;37713;53.254;6.460;2023-08-31T10:03:12;4.55;;;1.10;;
51636;SDS011;37713;53.254;6.460;2023-08-31T10:05:40;5.38;;;0.80;;
51636;SDS011;37713;53.254;6.460;2023-08-31T10:08:14;2.03;;;0.88;;
51636;SDS011;37713;53.254;6.460;2023-08-31T10:10:40;3.53;;;0.85;;
51636;SDS011;37713;53.254;6.460;2023-08-31T10:13:07;4.70;;;0.95;;
51636;SDS011;37713;53.254;6.460;2023-08-31T10:15:34;1.65;;;0.75;;
51636;SDS011;37713;53.254;6.460;2023-08-31T10:18:01;1.58;;;0.57;;
51636;SDS011;37713;53.254;6.460;2023-08-31T10:20:28;5.88;;;0.80;;
51636;SDS011;37713;53.254;6.460;2023-08-31T10:23:02;2.08;;;0.70;;
51636;SDS011;37713;53.254;6.460;2023-08-31T10:26:11;4.20;;;0.80;;
51636;SDS011;37713;53.254;6.460;2023-08-31T10:28:28;4.50;;;0.75;;
51636;SDS011;37713;53.254;6.460;2023-08-31T10:31:00;2.70;;;0.88;;
51636;SDS011;37713;53.254;6.460;2023-08-31T10:36:17;4.78;;;1.00;;
51636;SDS011;37713;53.254;6.460;2023-08-31T10:38:44;6.53;;;1.10;;
51636;SDS011;37713;53.254;6.460;2023-08-31T10:41:23;2.67;;;0.50;;
51636;SDS011;37713;53.254;6.460;2023-08-31T10:51:43;5.05;;;0.80;;
51636;SDS011;37713;53.254;6.460;2023-08-31T10:59:26;3.90;;;0.88;;
51636;SDS011;37713;53.254;6.460;2023-08-31T11:02:07;5.57;;;0.65;;
51636;SDS011;37713;53.254;6.460;2023-08-31T11:04:51;3.40;;;0.70;;
51636;SDS011;37713;53.254;6.460;2023-08-31T11:07:19;3.53;;;0.80;;
51636;SDS011;37713;53.254;6.460;2023-08-31T11:09:48;3.05;;;0.88;;
51636;SDS011;37713;53.254;6.460;2023-08-31T11:12:14;4.57;;;0.90;;
51636;SDS011;37713;53.254;6.460;2023-08-31T11:14:40;6.10;;;1.05;;
51636;SDS011;37713;53.254;6.460;2023-08-31T11:17:07;4.80;;;1.08;;
51636;SDS011;37713;53.254;6.460;2023-08-31T11:19:34;8.25;;;1.30;;
51636;SDS011;37713;53.254;6.460;2023-08-31T11:22:00;4.93;;;1.20;;
51636;SDS011;37713;53.254;6.460;2023-08-31T11:24:28;4.00;;;1.10;;
51636;SDS011;37713;53.254;6.460;2023-08-31T11:26:55;4.95;;;1.08;;
51636;SDS011;37713;53.254;6.460;2023-08-31T11:29:20;7.53;;;1.30;;
51636;SDS011;37713;53.254;6.460;2023-08-31T11:31:46;2.10;;;0.60;;
51636;SDS011;37713;53.254;6.460;2023-08-31T11:34:12;2.53;;;0.80;;
51636;SDS011;37713;53.254;6.460;2023-08-31T11:39:08;4.47;;;0.85;;
51636;SDS011;37713;53.254;6.460;2023-08-31T11:41:35;3.75;;;0.98;;
51636;SDS011;37713;53.254;6.460;2023-08-31T11:44:05;4.30;;;0.85;;
51636;SDS011;37713;53.254;6.460;2023-08-31T11:46:37;7.00;;;1.38;;
51636;SDS011;37713;53.254;6.460;2023-08-31T11:49:03;2.97;;;1.00;;
51636;SDS011;37713;53.254;6.460;2023-08-31T11:51:31;6.72;;;1.20;;
51636;SDS011;37713;53.254;6.460;2023-08-31T11:53:59;4.38;;;1.00;;
51636;SDS011;37713;53.254;6.460;2023-08-31T11:56:28;3.55;;;1.10;;
51636;SDS011;37713;53.254;6.460;2023-08-31T11:59:11;4.70;;;0.82;;
51636;SDS011;37713;53.254;6.460;2023-08-31T12:01:40;9.05;;;2.00;;
51636;SDS011;37713;53.254;6.460;2023-08-31T12:04:12;6.60;;;1.30;;
51636;SDS011;37713;53.254;6.460;2023-08-31T12:06:42;3.80;;;0.80;;
51636;SDS011;37713;53.254;6.460;2023-08-31T12:09:12;3.38;;;0.80;;
51636;SDS011;37713;53.254;6.460;2023-08-31T12:11:38;8.43;;;1.55;;
51636;SDS011;37713;53.254;6.460;2023-08-31T12:14:17;5.53;;;1.13;;
51636;SDS011;37713;53.254;6.460;2023-08-31T12:16:46;4.03;;;1.10;;
51636;SDS011;37713;53.254;6.460;2023-08-31T12:19:12;8.68;;;1.38;;
51636;SDS011;37713;53.254;6.460;2023-08-31T12:21:39;7.97;;;1.60;;
51636;SDS011;37713;53.254;6.460;2023-08-31T12:24:05;3.78;;;1.13;;
51636;SDS011;37713;53.254;6.460;2023-08-31T12:26:31;5.28;;;1.25;;
51636;SDS011;37713;53.254;6.460;2023-08-31T12:28:57;4.55;;;1.30;;
51636;SDS011;37713;53.254;6.460;2023-08-31T12:31:23;6.28;;;1.15;;
51636;SDS011;37713;53.254;6.460;2023-08-31T12:33:49;4.95;;;1.33;;
51636;SDS011;37713;53.254;6.460;2023-08-31T12:36:15;7.88;;;1.63;;
51636;SDS011;37713;53.254;6.460;2023-08-31T12:38:41;5.70;;;1.50;;
51636;SDS011;37713;53.254;6.460;2023-08-31T12:41:07;4.78;;;1.40;;
51636;SDS011;37713;53.254;6.460;2023-08-31T12:43:33;3.33;;;1.00;;
51636;SDS011;37713;53.254;6.460;2023-08-31T12:46:00;3.63;;;1.20;;
51636;SDS011;37713;53.254;6.460;2023-08-31T12:48:26;5.22;;;0.98;;
51636;SDS011;37713;53.254;6.460;2023-08-31T12:50:52;7.30;;;1.25;;
51636;SDS011;37713;53.254;6.460;2023-08-31T12:53:20;6.35;;;1.20;;
51636;SDS011;37713;53.254;6.460;2023-08-31T12:55:48;4.88;;;1.25;;
51636;SDS011;37713;53.254;6.460;2023-08-31T12:58:14;5.03;;;1.02;;
51636;SDS011;37713;53.254;6.460;2023-08-31T13:00:41;5.57;;;1.08;;
51636;SDS011;37713;53.254;6.460;2023-08-31T13:03:08;8.50;;;1.83;;
51636;SDS011;37713;53.254;6.460;2023-08-31T13:05:38;3.00;;;1.00;;
51636;SDS011;37713;53.254;6.460;2023-08-31T13:08:05;6.00;;;1.10;;
51636;SDS011;37713;53.254;6.460;2023-08-31T13:10:31;4.90;;;1.20;;
51636;SDS011;37713;53.254;6.460;2023-08-31T13:12:57;9.02;;;1.38;;
51636;SDS011;37713;53.254;6.460;2023-08-31T13:15:23;5.63;;;0.98;;
51636;SDS011;37713;53.254;6.460;2023-08-31T13:17:49;6.88;;;1.10;;
51636;SDS011;37713;53.254;6.460;2023-08-31T13:20:14;6.35;;;0.95;;
51636;SDS011;37713;53.254;6.460;2023-08-31T13:22:40;5.00;;;1.40;;
51636;SDS011;37713;53.254;6.460;2023-08-31T13:25:06;5.93;;;1.10;;
51636;SDS011;37713;53.254;6.460;2023-08-31T13:27:32;5.95;;;1.40;;
51636;SDS011;37713;53.254;6.460;2023-08-31T13:30:01;7.43;;;1.23;;
51636;SDS011;37713;53.254;6.460;2023-08-31T13:32:31;7.05;;;1.30;;
51636;SDS011;37713;53.254;6.460;2023-08-31T13:34:57;7.68;;;1.10;;
51636;SDS011;37713;53.254;6.460;2023-08-31T13:37:23;5.63;;;1.40;;
51636;SDS011;37713;53.254;6.460;2023-08-31T13:39:49;3.83;;;1.00;;
51636;SDS011;37713;53.254;6.460;2023-08-31T13:42:17;4.70;;;1.00;;
51636;SDS011;37713;53.254;6.460;2023-08-31T13:44:45;5.82;;;1.30;;
51636;SDS011;37713;53.254;6.460;2023-08-31T13:47:11;7.22;;;1.20;;
51636;SDS011;37713;53.254;6.460;2023-08-31T13:49:37;7.72;;;1.20;;
51636;SDS011;37713;53.254;6.460;2023-08-31T13:52:03;5.05;;;1.23;;
51636;SDS011;37713;53.254;6.460;2023-08-31T13:54:31;4.70;;;1.23;;
51636;SDS011;37713;53.254;6.460;2023-08-31T13:56:58;6.63;;;1.38;;
51636;SDS011;37713;53.254;6.460;2023-08-31T13:59:24;5.75;;;1.20;;
51636;SDS011;37713;53.254;6.460;2023-08-31T14:01:53;7.28;;;1.35;;
51636;SDS011;37713;53.254;6.460;2023-08-31T14:04:19;6.85;;;1.10;;
51636;SDS011;37713;53.254;6.460;2023-08-31T14:06:45;6.15;;;1.00;;
51636;SDS011;37713;53.254;6.460;2023-08-31T14:09:11;4.13;;;0.93;;
51636;SDS011;37713;53.254;6.460;2023-08-31T14:11:36;4.93;;;1.02;;
51636;SDS011;37713;53.254;6.460;2023-08-31T14:14:03;5.00;;;1.08;;
51636;SDS011;37713;53.254;6.460;2023-08-31T14:16:39;4.50;;;1.08;;
51636;SDS011;37713;53.254;6.460;2023-08-31T14:19:05;3.10;;;0.88;;
51636;SDS011;37713;53.254;6.460;2023-08-31T14:21:31;5.28;;;1.58;;
51636;SDS011;37713;53.254;6.460;2023-08-31T14:23:57;5.25;;;1.40;;
51636;SDS011;37713;53.254;6.460;2023-08-31T14:26:23;6.00;;;1.20;;
51636;SDS011;37713;53.254;6.460;2023-08-31T14:28:50;5.93;;;1.38;;
51636;SDS011;37713;53.254;6.460;2023-08-31T14:31:16;5.90;;;1.15;;
51636;SDS011;37713;53.254;6.460;2023-08-31T14:33:43;5.18;;;1.20;;
51636;SDS011;37713;53.254;6.460;2023-08-31T14:36:09;4.22;;;1.23;;
51636;SDS011;37713;53.254;6.460;2023-08-31T14:38:34;5.15;;;1.10;;
51636;SDS011;37713;53.254;6.460;2023-08-31T14:41:00;5.18;;;0.93;;
51636;SDS011;37713;53.254;6.460;2023-08-31T14:43:26;3.72;;;1.00;;
51636;SDS011;37713;53.254;6.460;2023-08-31T14:45:52;6.78;;;1.42;;
51636;SDS011;37713;53.254;6.460;2023-08-31T14:48:18;4.10;;;0.95;;
51636;SDS011;37713;53.254;6.460;2023-08-31T14:50:44;3.85;;;1.00;;
51636;SDS011;37713;53.254;6.460;2023-08-31T14:53:09;5.38;;;1.15;;
51636;SDS011;37713;53.254;6.460;2023-08-31T14:55:36;4.57;;;1.00;;
51636;SDS011;37713;53.254;6.460;2023-08-31T14:58:03;9.55;;;1.45;;
51636;SDS011;37713;53.254;6.460;2023-08-31T15:00:31;5.38;;;1.40;;
51636;SDS011;37713;53.254;6.460;2023-08-31T15:02:57;6.15;;;1.08;;
51636;SDS011;37713;53.254;6.460;2023-08-31T15:05:22;7.95;;;1.20;;
51636;SDS011;37713;53.254;6.460;2023-08-31T15:07:50;6.03;;;1.00;;
51636;SDS011;37713;53.254;6.460;2023-08-31T15:10:16;5.78;;;1.10;;